Time;durP1;ratioP1;P1;durP2;ratioP2;P2;SDS_P1;SDS_P2;PMS_P1;PMS_P2;Temp;Humidity;BMP_temperature;BMP_pressure;BME280_temperature;BME280_humidity;BME280_pressure;Samples;Min_cycle;Max_cycle;Signal;HPM_P1;HPM_P2
2022/04/16 00:00:08;;;;;;;2.03;1.63;;;;;;;8.86;86.34;99140.50;5074367;28;20216;-64
2022/04/16 00:02:35;;;;;;;1.80;1.60;;;;;;;8.88;85.95;99136.00;5073894;28;20211;-65
2022/04/16 00:05:01;;;;;;;2.83;1.90;;;;;;;8.87;85.92;99129.03;5073975;28;20211;-64
2022/04/16 00:07:29;;;;;;;1.80;1.70;;;;;;;8.86;86.26;99137.00;5074174;28;20222;-64
2022/04/16 00:09:55;;;;;;;1.80;1.67;;;;;;;8.89;85.89;99139.50;5074076;28;20250;-64
2022/04/16 00:12:22;;;;;;;2.10;1.90;;;;;;;8.81;85.88;99141.66;5073691;28;20218;-64
2022/04/16 00:14:49;;;;;;;2.03;1.83;;;;;;;8.75;86.46;99141.94;5073924;28;20626;-64
2022/04/16 00:17:16;;;;;;;2.10;1.90;;;;;;;8.58;87.16;99139.19;5072427;28;20238;-64
2022/04/16 00:19:43;;;;;;;2.10;1.90;;;;;;;8.58;87.23;99136.56;5073696;28;20219;-64
2022/04/16 00:22:12;;;;;;;1.93;1.83;;;;;;;8.51;87.50;99143.03;5074048;28;20217;-64
2022/04/16 00:24:40;;;;;;;1.80;1.70;;;;;;;8.50;87.54;99139.53;5069793;28;20669;-64
2022/04/16 00:27:07;;;;;;;2.07;1.87;;;;;;;8.42;87.94;99138.16;5073794;28;20216;-64
2022/04/16 00:29:34;;;;;;;1.87;1.77;;;;;;;8.34;88.39;99140.31;5073425;28;20238;-64
2022/04/16 00:32:03;;;;;;;2.00;1.53;;;;;;;8.36;87.77;99135.81;5073332;28;20254;-64
2022/04/16 00:34:29;;;;;;;2.03;1.83;;;;;;;8.29;88.60;99137.00;5073289;28;20278;-64
2022/04/16 00:36:55;;;;;;;1.83;1.70;;;;;;;8.26;88.29;99126.63;5073657;28;20555;-64
2022/04/16 00:39:22;;;;;;;2.03;1.90;;;;;;;8.25;88.67;99130.16;5073577;28;20213;-64
2022/04/16 00:41:50;;;;;;;2.57;2.10;;;;;;;8.18;89.27;99126.91;5071277;28;20713;-65
2022/04/16 00:44:19;;;;;;;1.67;1.57;;;;;;;8.08;89.24;99137.94;5058949;28;20580;-64
2022/04/16 00:46:45;;;;;;;1.67;1.57;;;;;;;8.01;89.88;99132.06;5066878;28;20211;-65
2022/04/16 00:49:12;;;;;;;1.93;1.73;;;;;;;7.93;90.13;99133.31;5073486;28;20217;-65
2022/04/16 00:51:39;;;;;;;1.90;1.70;;;;;;;7.77;91.23;99143.63;5073483;28;20219;-65
2022/04/16 00:54:06;;;;;;;1.73;1.63;;;;;;;7.62;91.97;99140.78;5062356;28;20222;-65
2022/04/16 00:56:32;;;;;;;2.20;2.00;;;;;;;7.52;93.41;99142.06;5073515;28;20211;-65
2022/04/16 00:59:02;;;;;;;1.90;1.73;;;;;;;7.40;94.07;99138.19;5066882;28;20230;-63
2022/04/16 01:01:28;;;;;;;2.47;1.90;;;;;;;7.28;94.99;99137.84;5067301;28;20214;-64
2022/04/16 01:03:55;;;;;;;1.97;1.77;;;;;;;7.21;95.50;99138.97;5067349;28;20576;-65
2022/04/16 01:06:21;;;;;;;2.27;2.07;;;;;;;7.09;96.22;99141.25;5064840;28;20215;-66
2022/04/16 01:08:48;;;;;;;1.87;1.73;;;;;;;6.98;97.23;99136.41;5062238;28;20220;-64
2022/04/16 01:11:15;;;;;;;3.10;2.13;;;;;;;6.94;97.98;99144.44;5067239;28;20215;-64
2022/04/16 01:13:45;;;;;;;1.90;1.80;;;;;;;6.87;99.04;99137.72;5073187;28;20219;-64
2022/04/16 01:16:13;;;;;;;2.23;2.03;;;;;;;6.86;99.44;99139.50;5071951;28;20230;-63
2022/04/16 01:18:46;;;;;;;2.77;2.10;;;;;;;6.80;100.00;99142.38;5073259;28;20245;-63
2022/04/16 01:21:12;;;;;;;2.40;2.20;;;;;;;6.81;100.00;99136.19;5073183;28;20211;-63
2022/04/16 01:23:41;;;;;;;2.10;1.90;;;;;;;6.82;100.00;99140.53;5072845;28;20222;-64
2022/04/16 01:26:07;;;;;;;2.00;1.80;;;;;;;6.76;100.00;99130.25;5072867;28;20305;-64
2022/04/16 01:28:34;;;;;;;1.90;1.80;;;;;;;6.73;100.00;99130.38;5073106;28;20211;-63
2022/04/16 01:31:00;;;;;;;2.07;1.80;;;;;;;6.69;100.00;99131.41;5072834;28;20212;-63
2022/04/16 01:33:27;;;;;;;1.77;1.67;;;;;;;6.69;100.00;99131.41;5062216;28;20576;-63
2022/04/16 01:35:56;;;;;;;2.40;2.20;;;;;;;6.64;100.00;99128.09;5071243;28;20277;-65
2022/04/16 01:38:25;;;;;;;2.87;2.20;;;;;;;6.67;100.00;99132.38;5072988;28;20216;-64
2022/04/16 01:40:54;;;;;;;2.17;1.97;;;;;;;6.77;100.00;99134.59;5072628;28;20250;-64
2022/04/16 01:43:20;;;;;;;2.53;2.33;;;;;;;6.80;99.80;99147.63;5062192;28;20218;-64
2022/04/16 01:45:48;;;;;;;2.30;2.10;;;;;;;6.87;98.79;99149.09;5072870;28;20215;-64
2022/04/16 01:48:14;;;;;;;2.40;1.90;;;;;;;6.86;99.48;99152.66;5072535;28;20762;-64
2022/04/16 01:50:41;;;;;;;2.23;2.03;;;;;;;6.87;98.83;99156.13;5072840;28;20218;-65
2022/04/16 01:53:07;;;;;;;2.10;1.90;;;;;;;6.92;98.40;99160.31;5061947;28;20603;-65
2022/04/16 01:55:34;;;;;;;2.27;2.07;;;;;;;6.89;97.85;99162.19;5072728;28;20247;-65
2022/04/16 01:58:03;;;;;;;2.27;2.07;;;;;;;6.76;99.33;99153.03;5072807;28;20284;-65
2022/04/16 02:00:30;;;;;;;2.00;1.80;;;;;;;6.61;100.00;99158.88;5059795;28;20640;-65
2022/04/16 02:02:57;;;;;;;4.10;2.50;;;;;;;6.60;100.00;99151.91;5061858;28;20213;-63
2022/04/16 02:05:24;;;;;;;2.60;2.40;;;;;;;6.66;100.00;99157.78;5072418;28;20669;-64
2022/04/16 02:07:51;;;;;;;2.40;2.20;;;;;;;6.72;99.87;99162.81;5072536;28;20223;-65
2022/04/16 02:10:18;;;;;;;2.80;2.10;;;;;;;6.72;100.00;99162.81;5072523;28;20219;-64
2022/04/16 02:12:45;;;;;;;2.77;2.47;;;;;;;6.77;100.00;99155.63;5072608;28;20224;-64
2022/04/16 02:15:13;;;;;;;2.40;2.20;;;;;;;6.79;99.47;99150.31;5072508;28;20236;-66
2022/04/16 02:17:40;;;;;;;2.47;2.27;;;;;;;6.74;99.77;99145.25;5072453;28;20221;-65
2022/04/16 02:20:08;;;;;;;2.30;2.10;;;;;;;6.73;99.66;99147.91;5072405;28;20229;-65
2022/04/16 02:22:42;;;;;;;2.43;2.23;;;;;;;6.78;99.79;99146.81;5072045;28;20677;-66
2022/04/16 02:25:09;;;;;;;2.20;2.00;;;;;;;6.76;99.55;99148.66;5065930;28;20225;-65
2022/04/16 02:27:36;;;;;;;2.67;2.47;;;;;;;6.83;99.37;99152.75;5073396;28;20233;-64
2022/04/16 02:30:03;;;;;;;2.57;2.30;;;;;;;6.90;98.57;99130.56;5076130;28;20271;-64
2022/04/16 02:32:32;;;;;;;2.37;2.17;;;;;;;6.89;98.15;99138.53;5075786;28;20218;-64
2022/04/16 02:34:59;;;;;;;2.40;2.03;;;;;;;6.87;98.10;99146.47;5075874;28;20237;-64
2022/04/16 02:37:25;;;;;;;2.17;2.03;;;;;;;6.79;98.75;99143.25;5075926;28;20219;-63
2022/04/16 02:39:52;;;;;;;2.60;2.40;;;;;;;6.87;98.91;99142.97;5075983;28;20293;-63
2022/04/16 02:42:19;;;;;;;2.33;2.13;;;;;;;6.86;98.39;99144.78;5075965;28;20707;-63
2022/04/16 02:47:31;;;;;;;2.40;2.20;;;;;;;6.88;97.97;99137.69;5075593;28;20254;-63
2022/04/16 02:49:57;;;;;;;2.30;2.10;;;;;;;6.80;98.67;99152.88;5062467;28;20219;-64
2022/04/16 02:52:25;;;;;;;2.37;2.17;;;;;;;6.73;99.32;99154.00;5059293;28;20218;-64
2022/04/16 02:54:52;;;;;;;2.50;2.30;;;;;;;6.72;99.10;99157.56;5060601;28;20238;-63
2022/04/16 02:57:19;;;;;;;2.63;2.23;;;;;;;6.72;99.80;99154.09;5064051;28;20268;-63
2022/04/16 02:59:47;;;;;;;2.73;2.53;;;;;;;6.77;99.38;99150.34;5062302;28;20219;-64
2022/04/16 03:02:13;;;;;;;2.30;2.10;;;;;;;6.67;99.04;99142.88;5060452;28;20679;-64
2022/04/16 03:04:41;;;;;;;2.37;2.17;;;;;;;6.64;99.68;99143.00;5060726;28;20220;-64
2022/04/16 03:07:08;;;;;;;2.67;2.37;;;;;;;6.60;100.00;99152.75;5063535;28;20213;-64
2022/04/16 03:09:34;;;;;;;2.40;2.20;;;;;;;6.47;100.00;99150.66;5062070;28;20701;-63
2022/04/16 03:12:00;;;;;;;2.60;2.40;;;;;;;6.47;100.00;99153.28;5060695;28;20223;-64
2022/04/16 03:19:56;;;;;;;2.50;2.10;;;;;;;6.87;100.00;99162.25;5064626;28;20349;-64
2022/04/16 03:22:22;;;;;;;3.00;2.70;;;;;;;6.98;100.00;99154.81;5075049;28;20222;-65
2022/04/16 03:24:49;;;;;;;2.40;2.20;;;;;;;7.09;99.35;99151.75;5074630;28;20221;-65
2022/04/16 03:27:16;;;;;;;2.70;2.50;;;;;;;7.18;99.28;99161.91;5074677;28;20715;-64
2022/04/16 03:29:42;;;;;;;2.53;2.33;;;;;;;7.23;99.31;99155.56;5074969;28;20218;-65
2022/04/16 03:32:09;;;;;;;3.27;2.80;;;;;;;7.21;99.53;99160.00;5074595;28;20212;-63
2022/04/16 03:34:37;;;;;;;2.90;2.57;;;;;;;7.26;99.11;99150.16;5074698;28;20600;-64
2022/04/16 03:37:05;;;;;;;2.97;2.40;;;;;;;7.16;99.55;99140.94;5074580;28;20242;-64
2022/04/16 03:39:32;;;;;;;2.70;2.20;;;;;;;6.96;100.00;99140.84;5074201;28;20587;-63
2022/04/16 03:41:58;;;;;;;2.60;2.40;;;;;;;6.78;100.00;99146.81;5074725;28;20246;-65
2022/04/16 03:44:25;;;;;;;2.80;2.47;;;;;;;6.61;100.00;99144.00;5072697;28;20211;-63
2022/04/16 03:46:51;;;;;;;2.93;2.60;;;;;;;6.49;100.00;99138.31;5074708;28;20211;-64
2022/04/16 03:49:17;;;;;;;2.60;2.40;;;;;;;6.42;100.00;99132.44;5074638;28;20210;-64
2022/04/16 03:51:44;;;;;;;3.47;2.67;;;;;;;6.37;100.00;99144.03;5074530;28;20216;-64
2022/04/16 04:02:24;;;;;;;2.87;2.57;;;;;;;6.32;100.00;99153.81;5070082;28;20272;-64
2022/04/16 04:04:51;;;;;;;2.63;2.43;;;;;;;6.25;100.00;99149.72;5074339;28;20218;-64
2022/04/16 04:07:17;;;;;;;2.67;2.47;;;;;;;6.28;100.00;99154.88;5073905;28;20224;-65
2022/04/16 04:09:45;;;;;;;2.60;2.40;;;;;;;6.47;100.00;99167.25;5073335;28;20219;-64
2022/04/16 04:12:12;;;;;;;2.53;2.33;;;;;;;6.56;100.00;99161.69;5073292;28;20254;-64
2022/04/16 04:14:39;;;;;;;2.83;2.43;;;;;;;6.51;100.00;99162.75;5073926;28;20217;-64
2022/04/16 04:17:07;;;;;;;2.77;2.53;;;;;;;6.48;100.00;99163.72;5074012;28;20269;-64
2022/04/16 04:19:35;;;;;;;2.93;2.57;;;;;;;6.56;100.00;99166.94;5074096;28;20225;-64
2022/04/16 04:22:01;;;;;;;3.03;2.73;;;;;;;6.66;100.00;99173.53;5073963;28;20588;-63
2022/04/16 04:24:28;;;;;;;3.03;2.73;;;;;;;6.77;100.00;99171.38;5073830;28;20229;-64
2022/04/16 04:26:56;;;;;;;2.87;2.67;;;;;;;6.77;100.00;99181.88;5073458;28;20728;-64
2022/04/16 04:29:23;;;;;;;3.27;2.97;;;;;;;6.84;100.00;99186.00;5064908;28;20227;-65
2022/04/16 04:31:49;;;;;;;4.27;3.10;;;;;;;6.90;100.00;99193.66;5073768;28;20222;-63
2022/04/16 04:34:15;;;;;;;2.70;2.50;;;;;;;6.91;100.00;99187.47;5073718;28;20222;-63
2022/04/16 04:36:42;;;;;;;2.70;2.50;;;;;;;6.93;100.00;99183.03;5071993;28;20241;-63
2022/04/16 04:39:08;;;;;;;3.00;2.80;;;;;;;6.98;100.00;99188.09;5073440;28;20705;-64
2022/04/16 04:41:35;;;;;;;2.97;2.67;;;;;;;7.00;100.00;99192.41;5073207;28;20238;-64
2022/04/16 04:44:03;;;;;;;3.07;2.67;;;;;;;7.07;98.99;99185.97;5073451;28;20210;-64
2022/04/16 04:46:30;;;;;;;3.10;2.80;;;;;;;7.07;98.55;99183.34;5073194;28;20684;-64
2022/04/16 04:48:56;;;;;;;3.20;2.90;;;;;;;7.11;98.87;99189.34;5072968;28;20704;-63
2022/04/16 04:51:23;;;;;;;2.73;2.50;;;;;;;7.14;98.88;99184.81;5073067;28;20702;-64
2022/04/16 04:53:49;;;;;;;3.30;3.00;;;;;;;7.24;97.89;99188.81;5073319;28;20219;-65
2022/04/16 04:56:15;;;;;;;2.80;2.50;;;;;;;7.32;96.86;99187.59;5073332;28;20236;-65
2022/04/16 04:58:42;;;;;;;3.73;2.70;;;;;;;7.40;96.86;99185.50;5073373;28;20224;-65
2022/04/16 05:01:10;;;;;;;3.00;2.50;;;;;;;7.49;96.34;99179.91;5073234;28;20215;-65
2022/04/16 05:03:36;;;;;;;2.90;2.60;;;;;;;7.57;95.77;99192.72;5071422;28;20222;-63
2022/04/16 05:06:03;;;;;;;4.00;3.23;;;;;;;7.63;95.13;99192.47;5073256;28;20682;-64
2022/04/16 05:08:29;;;;;;;2.90;2.53;;;;;;;7.71;95.46;99200.94;5073192;28;20211;-64
2022/04/16 05:10:55;;;;;;;3.30;3.00;;;;;;;7.77;95.88;99198.06;5073201;28;20213;-64
2022/04/16 05:13:22;;;;;;;2.87;2.60;;;;;;;7.84;95.31;99207.41;5073181;28;20576;-64
2022/04/16 05:15:48;;;;;;;2.90;2.60;;;;;;;7.91;96.08;99208.84;5073088;28;20246;-63
2022/04/16 05:18:16;;;;;;;3.30;2.30;;;;;;;8.02;95.74;99206.63;5072780;28;20695;-64
2022/04/16 05:20:43;;;;;;;2.97;2.67;;;;;;;8.07;95.57;99212.53;5073116;28;20306;-64
2022/04/16 05:23:09;;;;;;;2.93;2.63;;;;;;;8.13;94.96;99215.78;5072754;28;20208;-64
2022/04/16 05:25:36;;;;;;;2.90;2.60;;;;;;;8.21;95.70;99220.78;5073073;28;20215;-64
2022/04/16 05:28:02;;;;;;;3.33;2.90;;;;;;;8.26;94.38;99217.00;5071240;28;20223;-64
2022/04/16 05:30:34;;;;;;;3.07;2.63;;;;;;;8.27;93.54;99207.34;5072817;28;20231;-65
2022/04/16 05:33:05;;;;;;;3.17;2.70;;;;;;;8.32;93.91;99216.75;5072890;28;20254;-64
2022/04/16 05:35:33;;;;;;;3.23;2.73;;;;;;;8.39;94.00;99218.19;5072822;28;20302;-63
2022/04/16 05:38:00;;;;;;;4.00;3.10;;;;;;;8.46;94.28;99213.53;5073014;28;20269;-64
2022/04/16 05:40:26;;;;;;;3.70;3.13;;;;;;;8.48;93.95;99212.53;5072795;28;20243;-65
2022/04/16 05:42:53;;;;;;;3.40;3.03;;;;;;;8.46;93.26;99214.34;5072884;28;20211;-64
2022/04/16 05:45:19;;;;;;;3.30;3.00;;;;;;;8.48;93.56;99211.66;5065972;28;20211;-64
2022/04/16 05:47:45;;;;;;;3.57;3.10;;;;;;;8.53;93.62;99222.88;5072835;28;20337;-65
2022/04/16 05:50:12;;;;;;;3.03;2.50;;;;;;;8.58;93.60;99231.44;5072437;28;20659;-64
2022/04/16 05:52:41;;;;;;;3.60;3.07;;;;;;;8.62;92.98;99233.00;5072680;28;20242;-65
2022/04/16 05:55:08;;;;;;;3.20;2.90;;;;;;;8.60;92.60;99233.06;5070879;28;20222;-64
2022/04/16 05:57:35;;;;;;;3.07;2.77;;;;;;;8.61;93.31;99223.38;5072795;28;20235;-64
2022/04/16 06:00:02;;;;;;;2.97;2.67;;;;;;;8.70;93.09;99217.72;5072540;28;20215;-64
2022/04/16 06:02:29;;;;;;;4.13;3.17;;;;;;;8.76;93.13;99220.91;5075670;28;20211;-64
2022/04/16 06:04:55;;;;;;;3.13;2.73;;;;;;;8.81;91.59;99226.84;5076419;28;20212;-64
2022/04/16 06:07:21;;;;;;;3.13;2.60;;;;;;;8.84;91.95;99233.75;5076242;28;20222;-64
2022/04/16 06:09:49;;;;;;;4.17;2.63;;;;;;;8.89;92.49;99235.28;5076435;28;20226;-64
2022/04/16 06:12:16;;;;;;;3.37;2.80;;;;;;;8.95;92.38;99240.28;5076626;28;20583;-64
2022/04/16 06:14:42;;;;;;;2.63;2.43;;;;;;;9.00;92.18;99245.34;5076208;28;20216;-63
2022/04/16 06:17:09;;;;;;;2.93;2.70;;;;;;;8.99;90.75;99251.53;5076013;28;20246;-64
2022/04/16 06:19:35;;;;;;;3.23;2.77;;;;;;;8.96;90.47;99251.66;5076289;28;20215;-64
2022/04/16 06:22:02;;;;;;;3.43;3.10;;;;;;;8.91;91.11;99249.25;5074616;28;20227;-64
2022/04/16 06:24:28;;;;;;;3.10;2.80;;;;;;;8.96;91.39;99251.66;5075782;28;20685;-64
2022/04/16 06:26:56;;;;;;;3.23;2.93;;;;;;;9.03;91.82;99261.00;5076192;28;20220;-64
2022/04/16 06:29:22;;;;;;;3.13;2.83;;;;;;;9.08;91.88;99266.94;5076072;28;20208;-65
2022/04/16 06:31:49;;;;;;;4.37;2.73;;;;;;;9.05;89.79;99259.19;5076046;28;20218;-64
2022/04/16 06:34:15;;;;;;;3.23;2.93;;;;;;;9.07;89.38;99252.03;5076075;28;20235;-64
2022/04/16 06:36:42;;;;;;;3.60;2.90;;;;;;;9.03;90.00;99253.09;5076055;28;20613;-65
2022/04/16 06:39:08;;;;;;;3.37;3.00;;;;;;;9.02;90.78;99249.63;5075749;28;20668;-65
2022/04/16 06:41:35;;;;;;;3.47;2.97;;;;;;;9.10;91.43;99251.88;5070476;28;20250;-64
2022/04/16 06:44:03;;;;;;;4.03;3.03;;;;;;;9.11;90.61;99251.81;5075508;28;20219;-65
2022/04/16 06:46:29;;;;;;;3.40;2.97;;;;;;;9.17;91.19;99254.19;5074220;28;20215;-63
2022/04/16 06:48:56;;;;;;;3.63;3.10;;;;;;;9.30;91.72;99251.84;5075634;28;20222;-64
2022/04/16 06:51:22;;;;;;;3.27;2.97;;;;;;;9.37;91.55;99259.38;5075734;28;20219;-63
2022/04/16 06:53:49;;;;;;;3.20;2.90;;;;;;;9.45;91.48;99257.25;5075723;28;20219;-64
2022/04/16 06:56:15;;;;;;;3.57;3.20;;;;;;;9.54;91.94;99255.97;5075594;28;20246;-63
2022/04/16 06:58:42;;;;;;;3.37;3.07;;;;;;;9.64;92.16;99259.88;5071571;28;20220;-64
2022/04/16 07:01:09;;;;;;;5.07;3.73;;;;;;;9.75;91.84;99260.22;5074706;28;20215;-63
2022/04/16 07:03:36;;;;;;;4.37;3.73;;;;;;;9.85;90.73;99261.50;5075484;28;20215;-63
2022/04/16 07:06:02;;;;;;;3.77;3.20;;;;;;;9.91;89.37;99261.19;5075269;28;20218;-63
2022/04/16 07:08:29;;;;;;;5.13;3.23;;;;;;;9.88;88.60;99267.47;5075558;28;20219;-63
2022/04/16 07:10:55;;;;;;;4.57;3.37;;;;;;;9.94;88.57;99272.47;5075424;28;20212;-64
2022/04/16 07:13:22;;;;;;;3.30;2.93;;;;;;;10.02;87.96;99269.44;5073587;28;20215;-64
2022/04/16 07:15:48;;;;;;;4.00;3.60;;;;;;;10.11;87.92;99269.03;5075263;28;20245;-63
2022/04/16 07:18:16;;;;;;;4.73;3.20;;;;;;;10.18;88.12;99266.00;5075217;28;20225;-65
2022/04/16 07:20:43;;;;;;;3.93;3.30;;;;;;;10.27;87.78;99264.69;5074850;28;20229;-65
2022/04/16 07:23:10;;;;;;;4.17;3.77;;;;;;;10.31;88.37;99266.25;5075050;28;20261;-63
2022/04/16 07:25:36;;;;;;;4.03;3.10;;;;;;;10.40;88.02;99271.09;5074832;28;20225;-63
2022/04/16 07:28:03;;;;;;;4.83;3.60;;;;;;;10.47;87.53;99272.47;5074717;28;20211;-63
2022/04/16 07:30:29;;;;;;;4.90;3.50;;;;;;;10.56;86.56;99272.00;5074782;28;20228;-64
2022/04/16 07:32:56;;;;;;;3.70;3.40;;;;;;;10.61;84.61;99275.25;5074835;28;20220;-65
2022/04/16 07:35:26;;;;;;;3.40;3.10;;;;;;;10.52;85.18;99275.75;5075015;28;20220;-63
2022/04/16 07:37:56;;;;;;;4.90;3.60;;;;;;;10.60;85.75;99285.00;5073531;28;20239;-63
2022/04/16 07:40:23;;;;;;;3.53;3.17;;;;;;;10.66;85.10;99278.53;5074300;28;20288;-65
2022/04/16 07:42:50;;;;;;;4.00;3.40;;;;;;;10.74;84.75;99281.63;5074689;28;20223;-65
2022/04/16 07:45:16;;;;;;;4.07;3.47;;;;;;;10.76;84.46;99280.59;5074784;28;20226;-63
2022/04/16 07:47:43;;;;;;;3.63;3.33;;;;;;;10.81;83.14;99283.88;5074731;28;20207;-63
2022/04/16 07:50:11;;;;;;;4.63;3.63;;;;;;;10.85;82.55;99289.88;5074621;28;20212;-63
2022/04/16 07:52:38;;;;;;;3.93;3.43;;;;;;;10.88;83.85;99295.00;5074530;28;20647;-63
2022/04/16 07:55:06;;;;;;;4.50;3.80;;;;;;;10.95;83.87;99286.66;5074559;28;20270;-63
2022/04/16 07:57:32;;;;;;;5.43;3.67;;;;;;;11.06;81.62;99291.41;5074549;28;20239;-64
2022/04/16 07:59:59;;;;;;;5.67;3.87;;;;;;;11.17;82.00;99294.31;5074499;28;20215;-63
2022/04/16 08:02:25;;;;;;;4.07;3.67;;;;;;;11.17;80.07;99302.25;5074476;28;20580;-63
2022/04/16 08:04:52;;;;;;;3.87;3.50;;;;;;;11.26;81.67;99297.31;5072614;28;20215;-63
2022/04/16 08:07:18;;;;;;;4.17;3.70;;;;;;;11.37;81.58;99294.94;5074298;28;20223;-64
2022/04/16 08:09:46;;;;;;;4.03;3.60;;;;;;;11.41;79.62;99307.09;5073936;28;20684;-63
2022/04/16 08:12:12;;;;;;;4.70;3.90;;;;;;;11.42;81.47;99307.94;5073977;28;20696;-64
2022/04/16 08:14:39;;;;;;;4.60;3.73;;;;;;;11.47;82.09;99311.19;5070872;28;20675;-63
2022/04/16 08:17:06;;;;;;;4.97;3.90;;;;;;;11.56;82.52;99310.72;5073767;28;20246;-63
2022/04/16 08:19:32;;;;;;;5.07;3.80;;;;;;;11.64;81.95;99308.53;5074033;28;20599;-63
2022/04/16 08:21:59;;;;;;;5.50;3.73;;;;;;;11.72;81.05;99311.59;5073790;28;20220;-63
2022/04/16 08:24:41;;;;;;;6.60;4.13;;;;;;;11.84;79.76;99310.91;5073365;28;20244;-63
2022/04/16 08:27:08;;;;;;;4.43;3.70;;;;;;;11.98;81.01;99311.03;5073830;28;20273;-63
2022/04/16 08:29:35;;;;;;;5.23;4.17;;;;;;;12.06;80.34;99316.72;5073678;28;20219;-64
2022/04/16 08:32:02;;;;;;;6.33;4.43;;;;;;;12.19;79.28;99312.44;5072138;28;20629;-64
2022/04/16 08:34:28;;;;;;;5.63;3.80;;;;;;;12.30;78.59;99321.47;5073401;28;20685;-64
2022/04/16 08:36:55;;;;;;;5.53;4.57;;;;;;;12.37;77.69;99306.09;5073737;28;20237;-64
2022/04/16 08:39:22;;;;;;;6.10;4.77;;;;;;;12.40;77.08;99306.75;5073716;28;20216;-64
2022/04/16 08:41:50;;;;;;;5.93;5.20;;;;;;;12.53;76.46;99314.88;5073496;28;20327;-63
2022/04/16 08:44:19;;;;;;;6.87;4.70;;;;;;;12.62;75.08;99316.97;5073204;28;20210;-63
2022/04/16 08:46:46;;;;;;;7.07;5.03;;;;;;;12.64;74.92;99317.72;5073508;28;20306;-63
2022/04/16 08:49:14;;;;;;;5.70;5.03;;;;;;;12.64;74.15;99315.94;5073254;28;20225;-64
2022/04/16 08:51:42;;;;;;;6.20;5.20;;;;;;;12.75;74.37;99320.59;5073365;28;20223;-64
2022/04/16 08:54:08;;;;;;;6.40;5.40;;;;;;;12.85;73.52;99319.13;5073193;28;20224;-64
2022/04/16 08:56:35;;;;;;;5.63;4.80;;;;;;;12.91;73.21;99324.06;5071738;28;20249;-63
2022/04/16 08:59:02;;;;;;;7.20;5.53;;;;;;;12.91;72.25;99319.59;5073361;28;20209;-64
2022/04/16 09:01:30;;;;;;;7.07;5.93;;;;;;;12.90;71.84;99330.31;5073340;28;20240;-64
2022/04/16 09:03:58;;;;;;;6.57;5.40;;;;;;;12.85;73.80;99335.03;5073116;28;20218;-64
2022/04/16 09:06:25;;;;;;;6.83;5.77;;;;;;;12.78;73.04;99339.00;5073366;28;20214;-63
2022/04/16 09:08:52;;;;;;;6.90;6.13;;;;;;;12.76;73.49;99335.56;5073053;28;20215;-64
2022/04/16 09:11:22;;;;;;;9.00;6.90;;;;;;;12.79;74.38;99349.53;5073011;28;20682;-64
2022/04/16 09:13:53;;;;;;;8.40;6.50;;;;;;;12.83;74.57;99339.59;5072976;28;20676;-63
2022/04/16 09:16:20;;;;;;;7.60;5.90;;;;;;;12.77;72.33;99337.31;5073113;28;20244;-63
2022/04/16 09:18:50;;;;;;;6.53;5.37;;;;;;;12.80;73.25;99343.28;5072661;28;20243;-63
2022/04/16 09:21:17;;;;;;;6.90;5.67;;;;;;;12.85;72.65;99351.78;5072881;28;20217;-63
2022/04/16 09:23:50;;;;;;;6.93;5.83;;;;;;;12.87;72.92;99346.41;5071454;28;20205;-64
2022/04/16 09:26:27;;;;;;;6.23;5.57;;;;;;;12.96;71.94;99343.25;5072993;28;20295;-63
2022/04/16 09:28:54;;;;;;;6.17;5.30;;;;;;;13.06;72.63;99349.72;5067661;28;20219;-63
2022/04/16 09:31:27;;;;;;;6.40;5.53;;;;;;;13.04;70.99;99330.38;5062094;28;20223;-64
2022/04/16 09:33:54;;;;;;;6.57;5.50;;;;;;;12.98;71.19;99341.34;5072895;28;20217;-63
2022/04/16 09:36:25;;;;;;;6.90;5.27;;;;;;;12.89;71.71;99339.25;5074161;28;20242;-63
2022/04/16 09:38:59;;;;;;;7.97;6.00;;;;;;;12.92;71.44;99337.25;5077000;28;20278;-63
2022/04/16 09:41:31;;;;;;;6.83;5.90;;;;;;;13.00;71.40;99334.16;5076985;28;20244;-63
2022/04/16 09:43:57;;;;;;;7.13;6.03;;;;;;;13.03;71.05;99333.97;5076769;28;20219;-63
2022/04/16 09:46:27;;;;;;;6.40;5.40;;;;;;;13.20;71.67;99336.47;5076971;28;20206;-63
2022/04/16 09:49:00;;;;;;;8.63;6.13;;;;;;;13.50;71.18;99331.94;5075323;28;20225;-63
2022/04/16 09:51:27;;;;;;;7.50;6.00;;;;;;;13.61;68.06;99334.75;5076980;28;20215;-63
2022/04/16 09:53:54;;;;;;;8.47;6.13;;;;;;;13.69;67.51;99341.31;5076504;28;20219;-63
2022/04/16 09:56:22;;;;;;;7.57;6.30;;;;;;;13.86;67.10;99338.44;5076854;28;20219;-63
2022/04/16 09:58:52;;;;;;;8.87;6.37;;;;;;;13.92;66.85;99337.19;5076380;28;20235;-63
2022/04/16 10:01:21;;;;;;;6.40;5.60;;;;;;;14.05;67.11;99336.31;5076805;28;20213;-64
2022/04/16 10:03:50;;;;;;;8.20;5.63;;;;;;;14.16;63.83;99335.63;5076656;28;20329;-63
2022/04/16 10:06:18;;;;;;;7.90;6.07;;;;;;;14.28;63.83;99340.19;5076357;28;20222;-64
2022/04/16 10:08:45;;;;;;;6.87;5.57;;;;;;;14.45;62.02;99348.78;5076250;28;20213;-64
2022/04/16 10:11:19;;;;;;;7.63;5.73;;;;;;;14.61;63.01;99341.47;5076494;28;20226;-64
2022/04/16 10:13:54;;;;;;;7.70;6.27;;;;;;;14.68;62.87;99345.47;5076223;28;20285;-64
2022/04/16 10:16:28;;;;;;;7.50;6.13;;;;;;;14.74;60.59;99339.69;5075810;28;20214;-64
2022/04/16 10:18:55;;;;;;;7.70;6.03;;;;;;;14.77;60.78;99350.16;5076445;28;20703;-64
2022/04/16 10:21:23;;;;;;;7.83;6.03;;;;;;;14.83;61.55;99346.22;5076116;28;20701;-64
2022/04/16 10:24:00;;;;;;;7.50;5.77;;;;;;;14.88;60.68;99346.78;5069976;28;20220;-64
2022/04/16 10:26:38;;;;;;;7.40;6.13;;;;;;;14.81;58.81;99345.47;5065586;28;20215;-63
2022/04/16 10:29:05;;;;;;;5.97;4.87;;;;;;;14.66;59.21;99342.03;5076031;28;20230;-63
2022/04/16 10:31:33;;;;;;;6.83;5.33;;;;;;;14.39;59.64;99354.50;5076406;28;20242;-63
2022/04/16 10:34:02;;;;;;;5.53;4.77;;;;;;;14.24;59.72;99355.47;5075873;28;20614;-63
2022/04/16 10:36:32;;;;;;;5.97;5.13;;;;;;;14.29;63.20;99347.22;5076054;28;20214;-63
2022/04/16 10:38:59;;;;;;;6.63;4.77;;;;;;;14.35;59.95;99346.84;5075915;28;20291;-63
2022/04/16 10:41:27;;;;;;;5.90;4.87;;;;;;;14.66;59.31;99354.50;5074344;28;20233;-63
2022/04/16 10:43:57;;;;;;;7.97;5.80;;;;;;;14.89;59.66;99353.78;5073699;28;20217;-64
2022/04/16 10:46:24;;;;;;;6.37;5.57;;;;;;;15.11;57.47;99348.72;5067320;28;20223;-64
2022/04/16 10:48:51;;;;;;;6.57;5.63;;;;;;;14.86;54.48;99348.69;5075199;28;20673;-63
2022/04/16 10:51:23;;;;;;;6.50;5.23;;;;;;;14.51;55.98;99348.38;5075707;28;20226;-64
2022/04/16 10:53:50;;;;;;;4.67;4.17;;;;;;;14.28;54.80;99345.50;5075629;28;20222;-62
2022/04/16 10:56:20;;;;;;;5.17;4.03;;;;;;;14.11;58.41;99353.72;5075461;28;20216;-61
2022/04/16 10:58:48;;;;;;;5.10;4.00;;;;;;;14.24;56.88;99349.34;5075571;28;20240;-62
2022/04/16 11:01:24;;;;;;;5.17;3.93;;;;;;;14.46;56.27;99347.81;5075560;28;20213;-62
2022/04/16 11:03:51;;;;;;;4.90;4.40;;;;;;;14.57;57.04;99345.31;5064870;28;20216;-62
2022/04/16 11:06:18;;;;;;;4.53;3.93;;;;;;;14.67;56.58;99349.06;5073766;28;20214;-61
2022/04/16 11:08:46;;;;;;;4.83;3.90;;;;;;;14.61;56.04;99345.97;5075539;28;20215;-61
2022/04/16 11:11:15;;;;;;;4.00;3.30;;;;;;;14.77;55.61;99349.28;5075153;28;20217;-61
2022/04/16 11:13:44;;;;;;;5.87;4.00;;;;;;;14.62;52.18;99337.88;5075187;28;20750;-64
2022/04/16 11:16:10;;;;;;;5.27;4.07;;;;;;;14.38;53.76;99341.28;5075369;28;20590;-63
2022/04/16 11:18:44;;;;;;;5.00;4.07;;;;;;;14.30;55.63;99332.97;5074887;28;20245;-64
2022/04/16 11:21:12;;;;;;;4.03;3.57;;;;;;;14.11;56.66;99332.44;5075274;28;20218;-64
2022/04/16 11:23:44;;;;;;;3.80;3.20;;;;;;;14.01;57.88;99333.97;5075191;28;20210;-64
2022/04/16 11:34:27;;;;;;;4.97;4.07;;;;;;;14.87;52.26;99331.75;5074554;28;20260;-62
2022/04/16 11:36:54;;;;;;;2.57;2.37;;;;;;;14.65;51.80;99329.69;5074643;28;20229;-63
2022/04/16 11:39:21;;;;;;;3.90;3.13;;;;;;;14.43;52.03;99332.03;5074424;28;20246;-63
2022/04/16 11:41:50;;;;;;;5.20;3.90;;;;;;;14.48;56.55;99337.09;5074729;28;20236;-63
2022/04/16 11:44:29;;;;;;;4.27;3.53;;;;;;;14.62;54.74;99337.88;5074872;28;20246;-60
2022/04/16 11:46:56;;;;;;;4.20;3.53;;;;;;;14.92;51.39;99337.63;5074750;28;20229;-61
2022/04/16 11:49:22;;;;;;;3.53;3.20;;;;;;;15.43;48.55;99328.75;5074757;28;20222;-61
2022/04/16 11:51:49;;;;;;;3.83;3.43;;;;;;;15.45;49.95;99326.84;5074682;28;20231;-61
2022/04/16 11:54:26;;;;;;;4.63;3.63;;;;;;;15.42;50.53;99327.03;5069448;28;20225;-61
2022/04/16 11:56:55;;;;;;;3.67;3.23;;;;;;;15.29;50.32;99343.00;5063603;28;20214;-61
2022/04/16 11:59:25;;;;;;;4.33;3.63;;;;;;;15.20;51.01;99340.09;5063673;28;20245;-62
2022/04/16 12:01:59;;;;;;;4.20;3.30;;;;;;;15.13;49.53;99334.34;5071834;28;20215;-61